KTOP/TOP METAR and TAF weather

Enter ICAO airport designator
Station Type Date Time Source
KTOP METAR 2019/08/22 19:53 UTC NOAA

KTOP 221953Z 05008KT 10SM FEW024 BKN036 BKN065 28/21 A2997 RMK AO2 SLP139 T02780211


Station Type Date Time Source
KTOP Decoded METAR 2019/08/22 19:53 UTC NOAA

Station name not available
Aug 22, 2019 - 03:53 PM EDT / 2019.08.22 1953 UTC
Wind: from the NE (050 degrees) at 9 MPH (8 KT):0
Visibility: 10 mile(s):0
Sky conditions: mostly cloudy
Temperature: 82.0 F (27.8 C)
Dew Point: 70.0 F (21.1 C)
Relative Humidity: 66%
Pressure (altimeter): 29.97 in. Hg (1014 hPa)
ob: KTOP 221953Z 05008KT 10SM FEW024 BKN036 BKN065 28/21 A2997 RMK AO2 SLP139 T02780211
cycle: 20

Station Type Date Time Source
KTOP TAF 2019/08/22 18:22 UTC NOAA

TAF KTOP 221720Z 2218/2318 08006KT P6SM BKN025
FM222000 08006KT P6SM VCTS BKN035CB
FM230100 08006KT P6SM OVC090

Example: see airport list